Pagrindinis puslapis
METAR-TAF:

METAR-TAF

Oro uostai :

Alta, Norvegija

platuma: 69-59N, ilguma: 023-22E, Aukštis: 0 m

Dabartinis oras

Ataskaita buvo paskelbta 25 minutes, ne 00:50 UTC
Vėjas 4 kt iš Pietų/Pietryčių
Temperatūra -6°C
Drėgmė 93%
Slėgis 991 hPa
Matomumas: 2600 m
sniegas

METAR: ENAT 250050Z AUTO 15004KT 2600 -SN FEW004/// SCT009/// BKN012/// M06/M07 Q0991 RMK WIND 700FT 12004KT

Laikas: 02:15 (01:15 UTC)

Prognozė

Ataskaita buvo paskelbta 8 valandos ir 15 minutes, ne 17:00 UTC
Prognozė galioja nuo 24 metu 18 UTC su 24 metu 23 UTC
Vėjas 8 kt iš Šiaurės/Šiaurės Vakarų
Matomumas 10 km arba daugiau
Su prošvaistėmis ne aukštis 3000 ft
Laikinai
nuo 24 metu 20 UTC su 24 metu 23 UTC
Matomumas: 2000 m
ne aukštis 800 ft
sniegas

TAF: ENAT 241700Z 2418/2423 33008KT 9999 BKN030 TEMPO 2420/2423 2000 SHSN VV008

Orai ataskaitas ir orų prognozės (METAR, TAF).

turimą stotys yra geltonos ir raudonos taškus žemėlapyje.

Perkelti pele per norėdami pamatyti stoties vardą.

Tada spustelėkite, norėdami matyti oro stebėjimo ir prognozės.

Norėdami pakeisti žemėlapį: spustelėkite ant žalios mygtukų su juodo kryžiaus žemyn,; žalią mygtuką su brūkšneliu, jei norite nutolinti; arba žalių rodyklių gretimoms žemėlapius.


METAR-TAF: